createdAt,value
2022-12-03T00:01:40.904Z,101087.34
2022-12-03T00:04:08.406Z,101091.78
2022-12-03T00:06:36.399Z,101083.13
2022-12-03T00:09:04.417Z,101086.78
2022-12-03T00:11:32.518Z,101086.97
2022-12-03T00:13:59.944Z,101083.00
2022-12-03T00:16:27.753Z,101080.28
2022-12-03T00:18:56.743Z,101084.78
2022-12-03T00:21:24.913Z,101085.97
2022-12-03T00:23:52.656Z,101085.94
2022-12-03T00:26:20.633Z,101087.97
2022-12-03T00:28:48.145Z,101082.06
2022-12-03T00:31:15.964Z,101078.97
2022-12-03T00:33:43.607Z,101084.56
2022-12-03T00:36:12.704Z,101077.00
2022-12-03T00:38:40.213Z,101077.47
2022-12-03T00:41:08.213Z,101076.69
2022-12-03T00:43:35.445Z,101073.47
2022-12-03T00:46:03.257Z,101068.78
2022-12-03T00:48:30.712Z,101070.72
2022-12-03T00:51:01.527Z,101068.47
2022-12-03T00:53:30.303Z,101068.00
2022-12-03T00:55:58.094Z,101069.91
2022-12-03T00:58:25.694Z,101068.97
2022-12-03T01:00:53.502Z,101069.88
2022-12-03T01:03:20.903Z,101075.72
2022-12-03T01:05:48.715Z,101069.50
2022-12-03T01:08:16.161Z,101069.78
2022-12-03T01:10:45.708Z,101068.09
2022-12-03T01:13:13.304Z,101063.66
2022-12-03T01:15:41.192Z,101072.56
2022-12-03T01:18:08.794Z,101074.00
2022-12-03T01:20:36.513Z,101073.06
2022-12-03T01:23:03.724Z,101060.72
2022-12-03T01:25:31.431Z,101062.59
2022-12-03T01:28:00.134Z,101064.03
2022-12-03T01:30:28.166Z,101065.06
2022-12-03T01:32:55.480Z,101068.63
2022-12-03T01:35:23.335Z,101066.28
2022-12-03T01:37:50.569Z,101068.78
2022-12-03T01:40:20.736Z,101061.88
2022-12-03T01:42:48.260Z,101061.53
2022-12-03T01:45:23.209Z,101068.00
2022-12-03T01:47:51.136Z,101065.44
2022-12-03T01:50:23.098Z,101060.63
2022-12-03T01:52:51.057Z,101060.25
2022-12-03T01:55:21.235Z,101072.06
2022-12-03T01:57:51.848Z,101059.06
2022-12-03T02:02:54.161Z,101047.38
2022-12-03T02:05:24.207Z,101051.06
2022-12-03T02:07:51.699Z,101052.38
2022-12-03T02:10:22.775Z,101046.97
2022-12-03T02:12:55.073Z,101047.63
2022-12-03T02:15:23.070Z,101050.16
2022-12-03T02:17:52.101Z,101050.28
2022-12-03T02:20:20.188Z,101047.19
2022-12-03T02:22:55.237Z,101050.03
2022-12-03T02:25:27.343Z,101046.41
2022-12-03T02:27:55.361Z,101046.09
2022-12-03T02:30:26.042Z,101052.41
2022-12-03T02:32:54.688Z,101060.25
2022-12-03T02:35:24.713Z,101053.78
2022-12-03T02:37:54.763Z,101058.50
2022-12-03T02:40:27.602Z,101055.88
2022-12-03T02:42:58.239Z,101057.06
2022-12-03T02:45:28.757Z,101050.28
2022-12-03T02:47:59.306Z,101046.41
2022-12-03T02:50:30.672Z,101045.84
2022-12-03T02:53:01.076Z,101050.44
2022-12-03T02:55:36.751Z,101041.97
2022-12-03T02:58:05.082Z,101044.91
2022-12-03T03:00:33.987Z,101039.66
2022-12-03T03:03:02.207Z,101039.59
2022-12-03T03:05:31.076Z,101034.69
2022-12-03T03:07:59.600Z,101035.00
2022-12-03T03:10:29.137Z,101027.63
2022-12-03T03:12:58.649Z,101035.75
2022-12-03T03:15:26.243Z,101031.28
2022-12-03T03:17:53.712Z,101031.66
2022-12-03T03:20:21.594Z,101031.88
2022-12-03T03:22:48.870Z,101035.88
2022-12-03T03:25:19.726Z,101030.72
2022-12-03T03:27:47.436Z,101031.66
2022-12-03T03:30:17.209Z,101027.63
2022-12-03T03:32:44.444Z,101026.59
2022-12-03T03:35:12.477Z,101022.47
2022-12-03T03:37:39.838Z,101026.13
2022-12-03T03:40:08.714Z,101030.03
2022-12-03T03:42:37.022Z,101026.59
2022-12-03T03:45:06.413Z,101023.41
2022-12-03T03:47:35.233Z,101021.22
2022-12-03T03:50:03.336Z,101013.78
2022-12-03T03:52:30.708Z,101018.59
2022-12-03T03:54:59.143Z,101019.78
2022-12-03T03:57:26.413Z,101016.66
2022-12-03T03:59:54.234Z,101015.34
2022-12-03T04:02:24.563Z,101007.72
2022-12-03T04:04:54.360Z,101010.19
2022-12-03T04:07:21.843Z,101008.03
2022-12-03T04:09:49.423Z,101012.16
2022-12-03T04:12:19.184Z,101004.44
2022-12-03T04:14:47.169Z,101013.66
2022-12-03T04:17:14.403Z,101008.66
2022-12-03T04:19:42.417Z,101013.66
2022-12-03T04:22:11.101Z,101002.72
2022-12-03T04:24:38.902Z,101005.91
2022-12-03T04:27:06.287Z,101009.81
2022-12-03T04:29:33.950Z,101002.06
2022-12-03T04:32:01.225Z,101003.38
2022-12-03T04:34:28.976Z,101001.63
2022-12-03T04:36:56.578Z,100998.09
2022-12-03T04:39:25.700Z,101005.00
2022-12-03T04:41:53.355Z,101012.25
2022-12-03T04:44:21.413Z,101011.25
2022-12-03T04:46:48.531Z,101010.41
2022-12-03T04:49:16.662Z,101009.72
2022-12-03T04:51:44.247Z,101018.50
2022-12-03T04:54:11.932Z,101013.47
2022-12-03T04:56:44.016Z,101016.22
2022-12-03T04:59:16.011Z,101014.44
2022-12-03T05:01:45.118Z,101011.47
2022-12-03T05:04:14.010Z,101014.88
2022-12-03T05:06:42.445Z,101007.47
2022-12-03T05:09:11.117Z,101016.41
2022-12-03T05:11:38.694Z,101008.56
2022-12-03T05:14:09.918Z,101006.81
2022-12-03T05:16:37.415Z,101006.91
2022-12-03T05:19:07.797Z,101007.94
2022-12-03T05:21:35.657Z,101005.69
2022-12-03T05:24:03.711Z,101005.38
2022-12-03T05:26:31.229Z,101002.44
2022-12-03T05:28:59.189Z,101004.41
2022-12-03T05:31:27.999Z,101007.34
2022-12-03T05:33:56.322Z,101007.09
2022-12-03T05:36:23.554Z,101006.50
2022-12-03T05:38:51.312Z,101009.31
2022-12-03T05:41:18.618Z,101004.44
2022-12-03T05:43:46.413Z,101003.88
2022-12-03T05:46:13.692Z,101002.19
2022-12-03T05:48:44.017Z,101004.34
2022-12-03T05:51:11.324Z,101000.69
2022-12-03T05:53:39.107Z,100997.00
2022-12-03T05:56:07.132Z,100999.53
2022-12-03T05:58:35.274Z,100997.28
2022-12-03T06:01:02.598Z,101000.00
2022-12-03T06:03:31.036Z,101001.53
2022-12-03T06:06:00.006Z,100995.50
2022-12-03T06:08:28.162Z,100994.03
2022-12-03T06:10:55.481Z,101000.19
2022-12-03T06:13:23.444Z,100989.47
2022-12-03T06:15:51.007Z,101000.38
2022-12-03T06:18:19.062Z,101004.19
2022-12-03T06:20:46.370Z,101005.56
2022-12-03T06:23:15.571Z,100998.38
2022-12-03T06:25:42.859Z,101006.31
2022-12-03T06:28:10.684Z,101003.00
2022-12-03T06:30:37.973Z,101004.16
2022-12-03T06:33:05.743Z,101003.78
2022-12-03T06:35:33.066Z,101001.22
2022-12-03T06:38:01.211Z,100996.91
2022-12-03T06:40:30.162Z,100999.78
2022-12-03T06:42:57.932Z,101004.69
2022-12-03T06:45:25.505Z,101002.16
2022-12-03T06:47:53.309Z,101000.66
2022-12-03T06:50:20.954Z,100996.91
2022-12-03T06:52:48.869Z,100997.50
2022-12-03T06:55:16.390Z,100998.78
2022-12-03T06:57:45.656Z,100986.16
2022-12-03T07:00:14.031Z,101003.53
2022-12-03T07:02:42.005Z,101000.66
2022-12-03T07:05:09.799Z,100994.75
2022-12-03T07:07:37.896Z,100992.47
2022-12-03T07:10:06.631Z,101000.66
2022-12-03T07:12:34.459Z,100996.72
2022-12-03T07:15:03.213Z,100992.81
2022-12-03T07:17:30.939Z,100990.75
2022-12-03T07:19:58.321Z,100987.63
2022-12-03T07:22:25.978Z,100996.91
2022-12-03T07:24:53.645Z,100993.56
2022-12-03T07:27:21.634Z,100991.53
2022-12-03T07:29:49.012Z,100988.03
2022-12-03T07:32:18.259Z,100984.03
2022-12-03T07:34:45.432Z,100984.03
2022-12-03T07:37:13.140Z,100989.47
2022-12-03T07:39:40.478Z,100997.84
2022-12-03T07:42:08.319Z,100996.50
2022-12-03T07:44:35.685Z,100992.50
2022-12-03T07:47:03.497Z,100990.75
2022-12-03T07:49:32.315Z,100994.53
2022-12-03T07:52:00.385Z,100996.00
2022-12-03T07:54:27.653Z,100989.00
2022-12-03T07:57:00.948Z,100985.75
2022-12-03T07:59:28.985Z,100979.94
2022-12-03T08:01:57.142Z,100982.16
2022-12-03T08:04:24.639Z,100974.06
2022-12-03T08:06:53.900Z,100976.38
2022-12-03T08:09:21.264Z,100968.25
2022-12-03T08:11:49.743Z,100975.44
2022-12-03T08:14:18.233Z,100974.41
2022-12-03T08:16:47.689Z,100968.75
2022-12-03T08:19:16.499Z,100971.53
2022-12-03T08:21:45.146Z,100970.47
2022-12-03T08:24:16.560Z,100965.25
2022-12-03T08:26:46.328Z,100966.88
2022-12-03T08:29:16.324Z,100965.13
2022-12-03T08:31:48.166Z,100962.09
2022-12-03T08:34:20.567Z,100966.13
2022-12-03T08:36:51.279Z,100962.56
2022-12-03T08:39:41.574Z,100962.56
2022-12-03T08:42:14.114Z,100956.00
2022-12-03T08:44:41.502Z,100952.00
2022-12-03T08:47:16.762Z,100959.75
2022-12-03T08:49:51.386Z,100953.75
2022-12-03T08:52:21.299Z,100957.09
2022-12-03T08:54:53.116Z,100946.44
2022-12-03T08:57:28.031Z,100954.56
2022-12-03T08:59:58.659Z,100957.53
2022-12-03T09:02:31.359Z,100966.97
2022-12-03T09:04:59.664Z,100965.97
2022-12-03T09:07:27.873Z,100968.25
2022-12-03T09:09:56.704Z,100979.34
2022-12-03T09:12:24.370Z,100978.47
2022-12-03T09:14:52.000Z,100974.56
2022-12-03T09:17:20.093Z,100972.66
2022-12-03T09:19:47.508Z,100966.31
2022-12-03T09:22:15.291Z,100972.41
2022-12-03T09:24:42.554Z,100967.59
2022-12-03T09:27:11.964Z,100959.47
2022-12-03T09:29:39.267Z,100962.28
2022-12-03T09:32:07.224Z,100964.94
2022-12-03T09:34:34.611Z,100966.69
2022-12-03T09:37:02.732Z,100968.03
2022-12-03T09:39:29.982Z,100955.25
2022-12-03T09:41:57.986Z,100953.03
2022-12-03T09:44:29.558Z,100959.72
2022-12-03T09:46:57.428Z,100950.63
2022-12-03T09:49:24.959Z,100955.72
2022-12-03T09:51:56.614Z,100960.50
2022-12-03T09:54:26.836Z,100953.41
2022-12-03T09:56:56.860Z,100954.09
2022-12-03T09:59:30.145Z,100962.59
2022-12-03T10:01:58.505Z,100951.91
2022-12-03T10:04:27.318Z,100948.72
2022-12-03T10:06:57.742Z,100951.66
2022-12-03T10:09:27.824Z,100946.84
2022-12-03T10:11:56.922Z,100946.31
2022-12-03T10:14:24.679Z,100950.69
2022-12-03T10:16:54.852Z,100950.25
2022-12-03T10:19:24.641Z,100950.03
2022-12-03T10:21:52.420Z,100945.19
2022-12-03T10:24:25.793Z,100940.75
2022-12-03T10:26:55.784Z,100941.97
2022-12-03T10:29:29.934Z,100938.81
2022-12-03T10:32:05.628Z,100936.22
2022-12-03T10:34:34.849Z,100933.69
2022-12-03T10:37:14.428Z,100932.13
2022-12-03T10:39:57.197Z,100923.59
2022-12-03T10:42:26.696Z,100920.47
2022-12-03T10:45:14.362Z,100918.78
2022-12-03T10:47:45.036Z,100925.47
2022-12-03T10:50:17.636Z,100914.69
2022-12-03T10:52:46.550Z,100912.56
2022-12-03T10:55:14.946Z,100907.44
2022-12-03T10:57:45.860Z,100899.50
2022-12-03T11:00:16.471Z,100912.25
2022-12-03T11:02:53.082Z,100898.44
2022-12-03T11:05:25.571Z,100898.66
2022-12-03T11:07:53.797Z,100893.06
2022-12-03T11:10:21.735Z,100890.41
2022-12-03T11:13:22.605Z,100893.31
2022-12-03T11:15:50.093Z,100894.34
2022-12-03T11:18:51.606Z,100904.00
2022-12-03T11:21:20.393Z,100904.22
2022-12-03T11:24:17.745Z,100904.63
2022-12-03T11:27:27.674Z,100911.28
2022-12-03T11:29:59.976Z,100900.06
2022-12-03T11:33:05.403Z,100896.75
2022-12-03T11:36:16.695Z,100896.47
2022-12-03T11:38:56.632Z,100882.59
2022-12-03T11:41:31.184Z,100885.03
2022-12-03T11:44:29.874Z,100881.53
2022-12-03T11:47:08.560Z,100881.09
2022-12-03T11:49:39.393Z,100883.75
2022-12-03T11:52:27.305Z,100880.03
2022-12-03T11:54:59.671Z,100878.75
2022-12-03T11:57:33.896Z,100876.44
2022-12-03T12:00:05.870Z,100872.56
2022-12-03T12:02:34.137Z,100885.34
2022-12-03T12:05:16.629Z,100892.69
2022-12-03T12:07:44.475Z,100883.25
2022-12-03T12:10:13.894Z,100892.25
2022-12-03T12:12:47.224Z,100882.78
2022-12-03T12:15:42.419Z,100886.28
2022-12-03T12:18:39.611Z,100873.13
2022-12-03T12:21:44.508Z,100874.19
2022-12-03T12:24:36.480Z,100871.53
2022-12-03T12:27:07.429Z,100862.25
2022-12-03T12:29:35.984Z,100853.66
2022-12-03T12:32:13.091Z,100856.09
2022-12-03T12:34:42.237Z,100858.00
2022-12-03T12:37:12.230Z,100873.31
2022-12-03T12:39:40.891Z,100858.75
2022-12-03T12:42:28.992Z,100863.09
2022-12-03T12:45:09.349Z,100852.50
2022-12-03T12:47:36.732Z,100843.22
2022-12-03T12:50:10.872Z,100842.63
2022-12-03T12:52:47.183Z,100852.19
2022-12-03T12:55:15.158Z,100848.81
2022-12-03T12:57:44.395Z,100850.88
2022-12-03T13:00:15.668Z,100854.47
2022-12-03T13:02:48.917Z,100854.56
2022-12-03T13:05:17.832Z,100861.06
2022-12-03T13:07:45.760Z,100857.03
2022-12-03T13:10:35.939Z,100861.22
2022-12-03T13:13:15.672Z,100856.00
2022-12-03T13:15:50.893Z,100851.19
2022-12-03T13:18:29.369Z,100848.44
2022-12-03T13:20:57.438Z,100841.94
2022-12-03T13:23:32.740Z,100847.97
2022-12-03T13:26:17.342Z,100840.28
2022-12-03T13:28:52.551Z,100845.84
2022-12-03T13:31:26.835Z,100837.81
2022-12-03T13:33:55.475Z,100842.25
2022-12-03T13:36:35.856Z,100832.44
2022-12-03T13:39:13.020Z,100848.22
2022-12-03T13:41:42.527Z,100841.72
2022-12-03T13:44:29.934Z,100854.03
2022-12-03T13:47:00.953Z,100845.84
2022-12-03T13:49:30.078Z,100847.63
2022-12-03T13:51:57.832Z,100852.84
2022-12-03T13:54:30.706Z,100855.50
2022-12-03T13:56:58.512Z,100842.19
2022-12-03T13:59:27.546Z,100845.41
2022-12-03T14:01:55.723Z,100844.50
2022-12-03T14:04:23.225Z,100846.22
2022-12-03T14:06:51.375Z,100837.97
2022-12-03T14:09:19.327Z,100840.28
2022-12-03T14:11:47.316Z,100831.97
2022-12-03T14:14:15.169Z,100824.88
2022-12-03T14:16:44.786Z,100828.47
2022-12-03T14:19:12.459Z,100835.47
2022-12-03T14:21:40.843Z,100840.19
2022-12-03T14:24:08.722Z,100834.84
2022-12-03T14:26:36.985Z,100829.44
2022-12-03T14:29:08.611Z,100834.25
2022-12-03T14:31:37.214Z,100834.78
2022-12-03T14:34:06.365Z,100836.25
2022-12-03T14:36:34.279Z,100834.41
2022-12-03T14:39:01.850Z,100825.78
2022-12-03T14:41:30.256Z,100837.75
2022-12-03T14:43:57.906Z,100840.44
2022-12-03T14:46:26.509Z,100834.47
2022-12-03T14:48:54.057Z,100835.25
2022-12-03T14:51:23.738Z,100841.56
2022-12-03T14:53:51.556Z,100841.66
2022-12-03T14:56:19.840Z,100852.50
2022-12-03T14:58:47.690Z,100850.28
2022-12-03T15:01:16.148Z,100839.22
2022-12-03T15:03:43.773Z,100837.25
2022-12-03T15:06:12.101Z,100848.25
2022-12-03T15:08:41.052Z,100842.84
2022-12-03T15:11:09.411Z,100850.94
2022-12-03T15:13:36.943Z,100856.94
2022-12-03T15:16:05.890Z,100848.81
2022-12-03T15:18:33.503Z,100848.75
2022-12-03T15:21:02.009Z,100854.47
2022-12-03T15:23:29.359Z,100850.41
2022-12-03T15:25:59.317Z,100855.09
2022-12-03T15:28:26.878Z,100852.97
2022-12-03T15:30:55.131Z,100847.56
2022-12-03T15:33:22.479Z,100847.59
2022-12-03T15:35:50.243Z,100832.56
2022-12-03T15:38:17.848Z,100834.09
2022-12-03T15:40:45.747Z,100828.94
2022-12-03T15:43:14.984Z,100836.34
2022-12-03T15:45:43.093Z,100839.38
2022-12-03T15:48:10.491Z,100835.13
2022-12-03T15:50:41.897Z,100832.00
2022-12-03T15:53:09.517Z,100837.31
2022-12-03T15:55:37.419Z,100843.78
2022-12-03T15:58:04.791Z,100836.16
2022-12-03T16:00:33.973Z,100839.53
2022-12-03T16:03:01.567Z,100844.81
2022-12-03T16:05:29.468Z,100838.66
2022-12-03T16:07:56.916Z,100834.19
2022-12-03T16:10:24.873Z,100846.91
2022-12-03T16:12:52.299Z,100830.47
2022-12-03T16:15:29.728Z,100834.41
2022-12-03T16:17:58.782Z,100833.00
2022-12-03T16:20:26.805Z,100826.84
2022-12-03T16:22:54.216Z,100828.72
2022-12-03T16:25:21.895Z,100828.19
2022-12-03T16:27:49.361Z,100828.22
2022-12-03T16:30:17.817Z,100822.09
2022-12-03T16:32:45.421Z,100817.81
2022-12-03T16:35:15.188Z,100814.44
2022-12-03T16:37:42.865Z,100816.03
2022-12-03T16:40:11.926Z,100819.56
2022-12-03T16:42:39.445Z,100811.03
2022-12-03T16:45:08.954Z,100819.91
2022-12-03T16:47:36.944Z,100817.69
2022-12-03T16:50:07.474Z,100823.06
2022-12-03T16:52:36.583Z,100823.19
2022-12-03T16:55:05.353Z,100827.97
2022-12-03T16:57:34.067Z,100823.13
2022-12-03T17:00:02.232Z,100820.88
2022-12-03T17:02:29.987Z,100826.59
2022-12-03T17:04:58.098Z,100823.94
2022-12-03T17:07:25.731Z,100817.22
2022-12-03T17:09:55.968Z,100815.63
2022-12-03T17:12:25.453Z,100814.63
2022-12-03T17:14:53.993Z,100812.19
2022-12-03T17:17:23.869Z,100810.19
2022-12-03T17:19:55.067Z,100806.78
2022-12-03T17:22:22.598Z,100803.19
2022-12-03T17:24:53.040Z,100816.91
2022-12-03T17:27:22.317Z,100808.53
2022-12-03T17:29:50.580Z,100799.44
2022-12-03T17:32:18.162Z,100799.16
2022-12-03T17:34:45.972Z,100793.94
2022-12-03T17:37:13.427Z,100791.47
2022-12-03T17:39:41.124Z,100794.44
2022-12-03T17:42:08.618Z,100788.28
2022-12-03T17:44:38.155Z,100802.06
2022-12-03T17:47:06.075Z,100795.16
2022-12-03T17:49:35.230Z,100794.63
2022-12-03T17:52:02.912Z,100788.25
2022-12-03T17:54:55.299Z,100797.41
2022-12-03T17:57:18.784Z,100788.63
2022-12-03T17:59:48.297Z,100791.91
2022-12-03T18:02:15.926Z,100790.06
2022-12-03T18:04:44.150Z,100795.16
2022-12-03T18:07:12.300Z,100796.00
2022-12-03T18:09:40.081Z,100788.38
2022-12-03T18:12:08.208Z,100778.94
2022-12-03T18:14:36.543Z,100784.75
2022-12-03T18:17:05.696Z,100779.00
2022-12-03T18:19:33.373Z,100776.91
2022-12-03T18:22:00.789Z,100789.66
2022-12-03T18:24:28.711Z,100786.91
2022-12-03T18:26:56.188Z,100790.22
2022-12-03T18:29:24.473Z,100793.09
2022-12-03T18:31:52.025Z,100787.59
2022-12-03T18:34:21.545Z,100785.56
2022-12-03T18:36:54.136Z,100781.75
2022-12-03T18:39:26.379Z,100782.69
2022-12-03T18:41:54.159Z,100780.78
2022-12-03T18:44:22.014Z,100767.44
2022-12-03T18:46:54.137Z,100774.22
2022-12-03T18:49:23.442Z,100773.13
2022-12-03T18:51:56.026Z,100772.91
2022-12-03T18:54:27.098Z,100774.72
2022-12-03T18:56:54.599Z,100771.09
2022-12-03T18:59:22.701Z,100769.34
2022-12-03T19:01:50.064Z,100767.53
2022-12-03T19:04:18.302Z,100763.81
2022-12-03T19:06:47.689Z,100762.41
2022-12-03T19:09:16.108Z,100766.97
2022-12-03T19:11:44.912Z,100770.91
2022-12-03T19:14:13.684Z,100770.09
2022-12-03T19:16:42.553Z,100774.66
2022-12-03T19:19:11.033Z,100767.44
2022-12-03T19:21:38.694Z,100775.56
2022-12-03T19:24:25.457Z,100773.25
2022-12-03T19:26:53.672Z,100773.25
2022-12-03T19:29:22.775Z,100778.31
2022-12-03T19:31:50.788Z,100791.19
2022-12-03T19:34:19.594Z,100782.16
2022-12-03T19:36:47.583Z,100779.72
2022-12-03T19:39:17.425Z,100781.94
2022-12-03T19:41:45.106Z,100791.91
2022-12-03T19:44:14.318Z,100789.38
2022-12-03T19:46:42.392Z,100788.53
2022-12-03T19:49:11.496Z,100789.06
2022-12-03T19:51:39.469Z,100788.75
2022-12-03T19:54:11.350Z,100792.44
2022-12-03T19:56:40.308Z,100788.31
2022-12-03T19:59:08.237Z,100785.47
2022-12-03T20:01:36.150Z,100786.41
2022-12-03T20:04:04.666Z,100781.53
2022-12-03T20:06:35.123Z,100787.00
2022-12-03T20:09:06.807Z,100773.66
2022-12-03T20:11:35.462Z,100782.59
2022-12-03T20:14:06.592Z,100787.69
2022-12-03T20:16:35.833Z,100788.97
2022-12-03T20:19:06.348Z,100788.22
2022-12-03T20:21:36.622Z,100788.66
2022-12-03T20:24:05.841Z,100791.91
2022-12-03T20:26:34.185Z,100769.22
2022-12-03T20:29:06.007Z,100775.69
2022-12-03T20:31:35.377Z,100774.22
2022-12-03T20:34:04.568Z,100769.47
2022-12-03T20:36:32.989Z,100769.25
2022-12-03T20:39:02.710Z,100758.19
2022-12-03T20:41:30.544Z,100761.38
2022-12-03T20:43:58.326Z,100761.13
2022-12-03T20:46:27.811Z,100758.28
2022-12-03T20:48:58.250Z,100760.22
2022-12-03T20:51:28.182Z,100760.13
2022-12-03T20:53:56.385Z,100757.34
2022-12-03T20:56:26.392Z,100752.78
2022-12-03T20:58:54.469Z,100753.13
2022-12-03T21:01:23.833Z,100756.84
2022-12-03T21:03:53.427Z,100756.72
2022-12-03T21:06:24.144Z,100756.59
2022-12-03T21:08:53.295Z,100758.63
2022-12-03T21:11:23.048Z,100755.97
2022-12-03T21:13:51.207Z,100754.56
2022-12-03T21:16:39.294Z,100762.34
2022-12-03T21:19:09.727Z,100754.69
2022-12-03T21:21:38.478Z,100754.44
2022-12-03T21:24:07.223Z,100768.56
2022-12-03T21:26:34.764Z,100771.56
2022-12-03T21:29:02.600Z,100770.94
2022-12-03T21:31:30.113Z,100768.16
2022-12-03T21:33:58.293Z,100772.06
2022-12-03T21:36:26.031Z,100773.16
2022-12-03T21:38:55.377Z,100766.16
2022-12-03T21:41:22.767Z,100764.88
2022-12-03T21:43:50.739Z,100771.34
2022-12-03T21:47:09.509Z,100773.38
2022-12-03T21:49:06.158Z,100762.97
2022-12-03T21:51:33.782Z,100764.34
2022-12-03T21:54:04.230Z,100755.44
2022-12-03T21:56:31.785Z,100764.34
2022-12-03T21:58:59.726Z,100764.56
2022-12-03T22:01:27.477Z,100766.03
2022-12-03T22:03:55.827Z,100758.94
2022-12-03T22:06:23.489Z,100747.06
2022-12-03T22:08:51.241Z,100750.56
2022-12-03T22:11:22.144Z,100755.53
2022-12-03T22:13:51.368Z,100750.34
2022-12-03T22:16:21.246Z,100752.66
2022-12-03T22:18:49.905Z,100747.78
2022-12-03T22:21:19.022Z,100747.56
2022-12-03T22:23:47.151Z,100742.81
2022-12-03T22:26:16.913Z,100739.72
2022-12-03T22:28:48.627Z,100735.28
2022-12-03T22:31:17.629Z,100729.97
2022-12-03T22:33:45.589Z,100724.66
2022-12-03T22:36:20.007Z,100725.50
2022-12-03T22:38:48.792Z,100727.66
2022-12-03T22:41:16.320Z,100735.88
2022-12-03T22:43:47.015Z,100741.31
2022-12-03T22:46:14.953Z,100733.91
2022-12-03T22:48:44.645Z,100731.56
2022-12-03T22:51:13.238Z,100734.88
2022-12-03T22:53:41.124Z,100726.47
2022-12-03T22:56:08.880Z,100724.25
2022-12-03T22:58:38.281Z,100723.72
2022-12-03T23:01:07.943Z,100709.91
2022-12-03T23:03:36.780Z,100719.56
2022-12-03T23:06:09.864Z,100728.59
2022-12-03T23:08:37.746Z,100723.59
2022-12-03T23:11:05.385Z,100723.06
2022-12-03T23:13:33.293Z,100722.63
2022-12-03T23:16:00.563Z,100729.63
2022-12-03T23:18:30.137Z,100724.66
2022-12-03T23:20:57.787Z,100707.78
2022-12-03T23:23:27.735Z,100711.50
2022-12-03T23:25:59.100Z,100704.00
2022-12-03T23:28:28.385Z,100714.28
2022-12-03T23:30:56.030Z,100698.03
2022-12-03T23:33:24.566Z,100702.69
2022-12-03T23:35:54.018Z,100702.47
2022-12-03T23:38:21.882Z,100701.13
2022-12-03T23:40:49.795Z,100697.50
2022-12-03T23:43:17.737Z,100695.91
2022-12-03T23:45:45.228Z,100679.78
2022-12-03T23:48:13.174Z,100682.00
2022-12-03T23:50:40.809Z,100679.34
2022-12-03T23:53:10.610Z,100675.09
2022-12-03T23:55:39.880Z,100684.75
2022-12-03T23:58:07.963Z,100691.25
